Have a Safe July 4th! 

Flight Track Log - Related Links

Times and Time Zones

All times are in EDT time to prevent confusion due to time zone crossing. See the FLG3729 flight status page for this flight to view local times or setup timezone preferences in your user account.

Time Position Orientation Groundspeed Altitude Reporting Facility
EDT Latitude Longitude Course Direction KTS MPH feet Rate Location/Type
Mon 05:52:39 AM 42.7236 -73.8081 283° West 138 159 1,300  Level Boston Center
Mon 05:53:22 AM 42.6964 -73.8214 200° South 174 200 2,100 1,748 Climbing Boston Center
Mon 05:54:22 AM 42.7311 -73.8761 311° West 219 252 4,300 2,039 Climbing Boston Center
Mon 05:55:05 AM 42.7681 -73.9136 323° Northwest 246 283 5,600 2,214 Climbing Boston Center
Mon 05:56:00 AM 42.8297 -74.3078 281° West  Level FlightAware Approximate
Mon 05:56:05 AM 42.8194 -73.9772 318° Northwest 251 289 8,100  Level Boston Center
Mon 05:57:00 AM 42.8507 -74.4374 283° West  Level FlightAware Approximate
Mon 05:57:05 AM 42.8767 -74.0436 320° Northwest 258 297 10,600  Level Boston Center
Mon 05:58:05 AM 42.9464 -74.1306 318° Northwest 287 330 11,800 1,200 Climbing Boston Center
Mon 05:59:05 AM 43.0078 -74.2119 316° Northwest 320 368 13,000 1,400 Climbing Boston Center
Mon 06:00:05 AM 43.0494 -74.3408 294° West 338 389 14,600 1,500 Climbing Boston Center
Mon 06:01:05 AM 43.0578 -74.4661 275° West 352 405 16,000 1,500 Climbing Boston Center
Mon 06:02:05 AM 43.0675 -74.6172 275° West 363 418 17,600 1,400 Climbing Boston Center
Mon 06:03:05 AM 43.0753 -74.7397 275° West 370 426 18,800 1,200 Climbing Boston Center
Mon 06:04:05 AM 43.0828 -74.8792 274° West 370 426 20,000 1,150 Climbing Boston Center
Mon 06:05:05 AM 43.0925 -75.0161 276° West 370 426 21,100 1,050 Climbing Boston Center
Mon 06:06:05 AM 43.1017 -75.1586 275° West 370 426 22,100 1,000 Climbing Boston Center
Mon 06:07:05 AM 43.1106 -75.3014 275° West 370 426 23,100 950 Climbing Boston Center
Mon 06:08:05 AM 43.1194 -75.4442 275° West 375 432 24,000 450 Climbing Boston Center
Mon 06:09:05 AM 43.1281 -75.5897 275° West 380 437 24,000  Level Boston Center
Mon 06:10:05 AM 43.1378 -75.7608 275° West 393 452 24,000  Level Boston Center
Mon 06:11:05 AM 43.1475 -75.9208 275° West 410 472 24,000  Level Boston Center
Mon 06:12:56 AM 43.1603 -76.1853 274° West 418 481 24,000  Level Cleveland Center
Mon 06:13:56 AM 43.1492 -76.3372 264° West 407 468 24,000  Level Cleveland Center
Mon 06:14:56 AM 43.1381 -76.4858 264° West 407 468 24,000  Level Cleveland Center
Mon 06:15:56 AM 43.1264 -76.6347 264° West 407 468 24,000  Level Cleveland Center
Mon 06:16:56 AM 43.1106 -76.7836 262° West 407 468 24,000  Level Cleveland Center
Mon 06:17:56 AM 43.0967 -76.9322 263° West 407 468 24,000  Level Cleveland Center
Mon 06:18:56 AM 43.0825 -77.0811 263° West 407 468 24,000  Level Cleveland Center
Mon 06:19:56 AM 43.0681 -77.2297 262° West 407 468 24,000  Level Cleveland Center
Mon 06:20:56 AM 43.0578 -77.3781 265° West 402 463 24,000  Level Cleveland Center
Mon 06:21:56 AM 43.0411 -77.5294 261° West 402 463 24,000  Level Cleveland Center
Mon 06:22:56 AM 43.0281 -77.6778 263° West 402 463 24,000  Level Cleveland Center
Mon 06:23:56 AM 43.0131 -77.8261 262° West 407 468 24,000  Level Cleveland Center
Mon 06:24:56 AM 42.9981 -77.9944 263° West 407 468 24,000  Level Cleveland Center
Mon 06:25:56 AM 42.9825 -78.1425 262° West 407 468 24,000  Level Cleveland Center
Mon 06:26:56 AM 42.9667 -78.2850 261° West 402 463 24,000  Level Cleveland Center
Mon 06:27:56 AM 42.9528 -78.4303 263° West 397 457 24,000  Level Cleveland Center
Mon 06:28:56 AM 42.9367 -78.5725 261° West 392 451 24,000  Level Cleveland Center
Mon 06:29:56 AM 42.9183 -78.7206 260° West 392 451 24,000  Level Cleveland Center
Mon 06:30:56 AM 42.8997 -78.8628 260° West 392 451 24,000  Level Cleveland Center
Mon 06:31:56 AM 42.8789 -79.0081 259° West 392 451 24,000  Level Cleveland Center
Mon 06:32:56 AM 42.8578 -79.1500 259° West 392 451 24,000  Level Cleveland Center
Mon 06:33:56 AM 42.8386 -79.2950 260° West 392 451 24,000  Level Cleveland Center
Mon 06:34:56 AM 42.8172 -79.4397 259° West 392 451 24,000  Level Cleveland Center
Mon 06:35:56 AM 42.7978 -79.5844 260° West 392 451 24,000  Level Cleveland Center
Mon 06:36:56 AM 42.7717 -79.7292 256° West 392 451 24,000  Level Cleveland Center
Mon 06:37:56 AM 42.7539 -79.8736 261° West 392 451 24,000  Level Cleveland Center
Mon 06:38:56 AM 42.7444 -80.0064 265° West 392 451 24,000  Level Cleveland Center
Mon 06:39:56 AM 42.7386 -80.1564 267° West 392 451 24,000  Level Cleveland Center
Mon 06:40:56 AM 42.7328 -80.3033 267° West 397 457 24,000  Level Cleveland Center
Mon 06:41:56 AM 42.7247 -80.4672 266° West 397 457 24,000  Level Cleveland Center
Mon 06:42:56 AM 42.7208 -80.6142 268° West 402 463 24,000  Level Cleveland Center
Mon 06:43:56 AM 42.7122 -80.7642 266° West 402 463 24,000  Level Cleveland Center
Mon 06:44:56 AM 42.7056 -80.9139 267° West 402 463 24,000  Level Cleveland Center
Mon 06:45:56 AM 42.6864 -81.0633 260° West 402 463 24,000  Level Cleveland Center
Mon 06:46:56 AM 42.6689 -81.2100 261° West 401 461 24,000  Level Cleveland Center
Mon 06:47:56 AM 42.6533 -81.3622 262° West 401 461 24,000  Level Cleveland Center
Mon 06:48:56 AM 42.6358 -81.5033 260° West 398 458 24,000 -350 Level Cleveland Center
Mon 06:49:56 AM 42.6197 -81.6553 262° West 406 467 23,300 -1,200 Descending Cleveland Center
Mon 06:50:56 AM 42.5997 -81.7961 259° West 421 484 21,600 -1,900 Descending Cleveland Center
Mon 06:51:56 AM 42.5811 -81.9564 261° West 431 496 19,500 -2,000 Descending Cleveland Center
Mon 06:52:56 AM 42.5625 -82.1083 261° West 426 490 17,600 -2,000 Descending Cleveland Center
Mon 06:53:56 AM 42.5439 -82.2572 260° West 421 484 15,500 -2,050 Descending Cleveland Center
Mon 06:54:56 AM 42.5250 -82.4058 260° West 411 473 13,500 -2,127 Descending Cleveland Center
Mon 06:55:15 AM 42.5197 -82.4678 263° West 383 441 12,700 -1,500 Descending Cleveland Center
Mon 06:55:56 AM 42.5061 -82.5433 256° West 397 457 12,000 -772 Descending Cleveland Center
Mon 06:56:56 AM 42.4686 -82.6547 245° Southwest 365 420 11,400 -1,000 Descending Cleveland Center
Mon 06:57:56 AM 42.4233 -82.7433 235° Southwest 314 361 10,000 -1,450 Descending Cleveland Center
Mon 06:58:56 AM 42.3881 -82.8322 242° Southwest 294 338 8,500 -1,658 Descending Cleveland Center
Mon 06:59:12 AM 42.3956 -82.8747 283° West 273 314 7,900 -1,500 Descending Cleveland Center
Mon 06:59:56 AM 42.3967 -82.9308 272° West 260 299 7,000 -1,475 Descending Cleveland Center
Mon 07:00:13 AM 42.4000 -82.9733 276° West 263 303 6,400 -1,000 Descending Cleveland Center
Mon 07:00:56 AM 42.3944 -83.0292 262° West 260 299 6,000 -689 Descending Cleveland Center
Mon 07:01:14 AM 42.3936 -83.0686 268° West 253 291 5,700 -1,000 Descending Cleveland Center
Mon 07:01:56 AM 42.3864 -83.1217 260° West 255 293 5,000 -806 Descending Cleveland Center
Mon 07:02:21 AM 42.3728 -83.1689 249° West 251 289 4,800 -700 Descending Cleveland Center
Mon 07:02:56 AM 42.3553 -83.2019 234° Southwest 250 288 4,300 -1,082 Descending Cleveland Center
Mon 07:03:22 AM 42.3356 -83.2433 237° Southwest 213 245 3,700 -1,385 Descending Cleveland Center

Login

Don't have an account? Register now (free) for customized features, flight alerts, and more!